createdAt,value
2022-12-15T09:49:06.978Z,-6
2022-12-15T09:54:13.254Z,-5.7
2022-12-15T09:59:19.466Z,-5.4
2022-12-15T10:04:25.562Z,-5.1
2022-12-15T10:09:31.468Z,-5
2022-12-15T10:14:37.796Z,-4.8
2022-12-15T10:19:43.715Z,-4.6
2022-12-15T10:24:50.108Z,-4.4
2022-12-15T10:29:56.044Z,-4.1
2022-12-15T10:40:08.365Z,-3.4
2022-12-15T10:45:14.312Z,-3.2
2022-12-15T10:50:20.711Z,-3
2022-12-15T10:55:26.711Z,-2.6
2022-12-15T11:00:32.641Z,-2.4
2022-12-15T11:05:38.933Z,-2.1
2022-12-15T11:10:44.887Z,-2.3
2022-12-15T11:15:51.209Z,-1.8
2022-12-15T11:20:57.323Z,-1.4
2022-12-15T11:26:03.413Z,-1.3
2022-12-15T11:31:09.557Z,-1.5
2022-12-15T11:36:14.523Z,-1.3
2022-12-15T11:41:19.781Z,-1.1
2022-12-15T11:46:25.940Z,-1.1
2022-12-15T11:51:32.038Z,-1.1
2022-12-15T11:56:38.036Z,-1.1
2022-12-15T12:01:44.082Z,-1
2022-12-15T12:06:50.383Z,-1
2022-12-15T12:11:56.502Z,-1.1
2022-12-15T12:17:02.654Z,-0.8
2022-12-15T12:22:08.767Z,-0.8
2022-12-15T12:27:14.830Z,-0.7
2022-12-15T12:32:21.063Z,-0.6
2022-12-15T12:37:27.095Z,-0.7
2022-12-15T12:42:33.183Z,-0.8
2022-12-15T12:47:38.179Z,-0.6
2022-12-15T12:52:44.259Z,-0.7
2022-12-15T12:57:50.412Z,-1.5
2022-12-15T13:02:56.701Z,-1.9
2022-12-15T13:08:02.667Z,-2.5
2022-12-15T13:13:08.950Z,-2.7
2022-12-15T13:18:14.855Z,-3.1
2022-12-15T13:23:19.981Z,-3.5
2022-12-15T13:28:25.308Z,-3.6
2022-12-15T13:33:30.443Z,-3.7
2022-12-15T13:38:35.473Z,-3.9
2022-12-15T13:43:41.614Z,-4.3
2022-12-15T13:48:47.785Z,-4.5
2022-12-15T13:53:53.887Z,-4.7
2022-12-15T13:59:00.034Z,-4.9
2022-12-15T14:04:06.181Z,-4.9
2022-12-15T14:09:12.264Z,-4.7
2022-12-15T14:14:18.360Z,-4.8
2022-12-15T14:19:24.493Z,-4.7
2022-12-15T14:24:30.622Z,-4.7
2022-12-15T14:29:36.833Z,-5.2
2022-12-15T14:34:42.876Z,-5.4
2022-12-15T14:44:55.123Z,-5.2
2022-12-15T14:50:00.227Z,-5.4
2022-12-15T14:55:06.347Z,-5.1
2022-12-15T15:00:12.361Z,-4.8
2022-12-15T15:05:18.552Z,-5.1
2022-12-15T15:10:24.525Z,-5
2022-12-15T15:15:30.670Z,-5.1
2022-12-15T15:20:36.741Z,-4.8
2022-12-15T15:25:41.890Z,-4.8
2022-12-15T15:30:47.011Z,-4.7
2022-12-15T15:35:52.158Z,-4.7
2022-12-15T15:40:57.286Z,-4.7
2022-12-15T15:46:03.400Z,-4.7
2022-12-15T15:51:09.511Z,-4.9
2022-12-15T15:56:15.715Z,-4.9
2022-12-15T16:01:21.753Z,-5
2022-12-15T16:06:27.879Z,-4.9
2022-12-15T16:11:33.985Z,-4.9
2022-12-15T16:16:40.217Z,-4.9
2022-12-15T16:21:46.253Z,-4.8
2022-12-15T16:26:52.525Z,-4.7
2022-12-15T16:31:58.518Z,-4.9
2022-12-15T16:37:04.562Z,-4.9
2022-12-15T16:42:10.689Z,-5.1
2022-12-15T16:47:15.815Z,-5.1
2022-12-15T16:52:21.988Z,-5.1
2022-12-15T16:57:28.059Z,-4.9
2022-12-15T17:02:34.270Z,-4.8
2022-12-15T17:07:40.332Z,-5.1
2022-12-15T17:12:46.421Z,-5.2
2022-12-15T17:17:52.574Z,-5.1
2022-12-15T17:22:57.712Z,-5
2022-12-15T17:28:02.862Z,-4.9
2022-12-15T17:33:08.905Z,-5
2022-12-15T17:38:15.018Z,-5.1
2022-12-15T17:43:21.125Z,-5.3
2022-12-15T17:53:33.582Z,-5.1
2022-12-15T17:58:39.503Z,-5
2022-12-15T18:03:45.668Z,-5.2
2022-12-15T18:08:51.723Z,-5.3
2022-12-15T18:13:57.823Z,-5.2
2022-12-15T18:19:03.955Z,-5.3
2022-12-15T18:24:10.139Z,-5.2
2022-12-15T18:29:16.173Z,-5.3
2022-12-15T18:34:21.500Z,-5.4
2022-12-15T18:39:27.468Z,-5.4
2022-12-15T18:44:33.570Z,-5.5
2022-12-15T18:49:39.793Z,-5.4
2022-12-15T18:54:45.894Z,-5.7
2022-12-15T18:59:51.975Z,-5.5
2022-12-15T19:04:58.065Z,-5.4
2022-12-15T19:10:04.187Z,-5.6
2022-12-15T19:15:09.286Z,-5.6
2022-12-15T19:20:14.448Z,-5.7
2022-12-15T19:25:19.644Z,-5.8
2022-12-15T19:30:24.688Z,-5.7
2022-12-15T19:35:30.821Z,-5.8
2022-12-15T19:40:36.930Z,-6.1
2022-12-15T19:45:43.052Z,-5.9
2022-12-15T19:50:49.240Z,-6
2022-12-15T19:55:55.333Z,-5.9
2022-12-15T20:01:01.564Z,-6.2
2022-12-15T20:06:07.542Z,-6.5
2022-12-15T20:11:13.637Z,-6.2
2022-12-15T20:16:19.743Z,-6.5
2022-12-15T20:21:25.861Z,-6.8
2022-12-15T20:26:32.012Z,-7
2022-12-15T20:31:38.124Z,-7.4
2022-12-15T20:36:43.247Z,-7.6
2022-12-15T20:41:49.403Z,-7.7
2022-12-15T20:46:55.492Z,-7.8
2022-12-15T20:52:00.638Z,-7.9
2022-12-15T20:57:06.811Z,-7.5
2022-12-15T21:02:12.870Z,-7.6
2022-12-15T21:07:19.061Z,-7.7
2022-12-15T21:12:24.131Z,-7.6
2022-12-15T21:17:29.424Z,-7.4
2022-12-15T21:22:34.640Z,-8
2022-12-15T21:27:39.706Z,-8.3
2022-12-15T21:32:45.700Z,-8.3
2022-12-15T21:37:51.801Z,-8.3
2022-12-15T21:42:57.992Z,-7.8
2022-12-15T21:48:04.204Z,-7.8
2022-12-15T21:53:10.303Z,-8.1
2022-12-15T21:58:16.428Z,-8.4
2022-12-15T22:03:22.570Z,-8.3
2022-12-15T22:08:28.702Z,-8.1
2022-12-15T22:13:34.834Z,-8.3
2022-12-15T22:18:40.941Z,-8.4
2022-12-15T22:23:47.097Z,-8.4
2022-12-15T22:28:53.214Z,-8.8
2022-12-15T22:33:58.266Z,-8.8
2022-12-15T22:39:04.459Z,-8.9
2022-12-15T22:44:10.515Z,-8.7
2022-12-15T22:49:16.686Z,-8.8
2022-12-15T22:54:22.803Z,-8.9
2022-12-15T22:59:28.926Z,-8.5
2022-12-15T23:04:35.045Z,-8.4
2022-12-15T23:09:40.140Z,-8.6
2022-12-15T23:14:45.334Z,-8.8
2022-12-15T23:19:50.457Z,-8.7
2022-12-15T23:24:55.611Z,-8.4
2022-12-15T23:30:01.804Z,-8.6
2022-12-15T23:35:07.848Z,-8.8
2022-12-15T23:40:13.969Z,-9.2
2022-12-15T23:45:20.165Z,-9.2
2022-12-15T23:50:26.145Z,-9.1
2022-12-15T23:55:32.295Z,-9.4
